sensor_id;sensor_type;location;lat;lon;timestamp;P1;durP1;ratioP1;P2;durP2;ratioP2
55710;SDS011;41612;51.994;5.880;2022-12-18T02:03:43;60.42;;;28.92;;
55710;SDS011;41612;51.994;5.880;2022-12-18T02:06:39;56.35;;;26.27;;
55710;SDS011;41612;51.994;5.880;2022-12-18T02:09:13;60.80;;;28.15;;
55710;SDS011;41612;51.994;5.880;2022-12-18T02:17:57;55.92;;;25.73;;
55710;SDS011;41612;51.994;5.880;2022-12-18T02:20:47;58.17;;;25.88;;
55710;SDS011;41612;51.994;5.880;2022-12-18T02:29:31;58.57;;;26.63;;
55710;SDS011;41612;51.994;5.880;2022-12-18T02:32:06;61.70;;;25.80;;
55710;SDS011;41612;51.994;5.880;2022-12-18T02:35:00;52.13;;;25.83;;
55710;SDS011;41612;51.994;5.880;2022-12-18T02:37:37;47.42;;;22.38;;
55710;SDS011;41612;51.994;5.880;2022-12-18T02:40:09;48.30;;;23.98;;
55710;SDS011;41612;51.994;5.880;2022-12-18T02:42:41;50.13;;;25.38;;
55710;SDS011;41612;51.994;5.880;2022-12-18T02:45:19;47.30;;;22.35;;
55710;SDS011;41612;51.994;5.880;2022-12-18T02:47:49;50.45;;;24.27;;
55710;SDS011;41612;51.994;5.880;2022-12-18T02:50:38;45.47;;;21.85;;
55710;SDS011;41612;51.994;5.880;2022-12-18T02:53:38;52.60;;;22.98;;
55710;SDS011;41612;51.994;5.880;2022-12-18T02:56:17;45.85;;;23.60;;
55710;SDS011;41612;51.994;5.880;2022-12-18T02:59:09;52.92;;;25.45;;
55710;SDS011;41612;51.994;5.880;2022-12-18T03:01:55;49.55;;;23.23;;
55710;SDS011;41612;51.994;5.880;2022-12-18T03:07:34;52.22;;;25.42;;
55710;SDS011;41612;51.994;5.880;2022-12-18T03:10:09;51.22;;;23.98;;
55710;SDS011;41612;51.994;5.880;2022-12-18T03:12:47;57.20;;;25.42;;
55710;SDS011;41612;51.994;5.880;2022-12-18T03:15:59;47.40;;;23.55;;
55710;SDS011;41612;51.994;5.880;2022-12-18T03:19:07;47.95;;;24.40;;
55710;SDS011;41612;51.994;5.880;2022-12-18T03:21:38;50.72;;;22.92;;
55710;SDS011;41612;51.994;5.880;2022-12-18T03:24:15;55.08;;;23.75;;
55710;SDS011;41612;51.994;5.880;2022-12-18T03:27:00;40.20;;;21.17;;
55710;SDS011;41612;51.994;5.880;2022-12-18T03:29:38;48.08;;;22.83;;
55710;SDS011;41612;51.994;5.880;2022-12-18T03:32:15;46.45;;;23.55;;
55710;SDS011;41612;51.994;5.880;2022-12-18T03:34:57;48.92;;;23.08;;
55710;SDS011;41612;51.994;5.880;2022-12-18T03:37:45;50.58;;;22.45;;
55710;SDS011;41612;51.994;5.880;2022-12-18T03:40:13;48.28;;;23.25;;
55710;SDS011;41612;51.994;5.880;2022-12-18T03:45:34;47.40;;;22.67;;
55710;SDS011;41612;51.994;5.880;2022-12-18T03:48:11;42.78;;;20.42;;
55710;SDS011;41612;51.994;5.880;2022-12-18T03:50:49;47.90;;;21.58;;
55710;SDS011;41612;51.994;5.880;2022-12-18T03:56:50;43.17;;;21.45;;
55710;SDS011;41612;51.994;5.880;2022-12-18T04:01:58;35.25;;;19.58;;
55710;SDS011;41612;51.994;5.880;2022-12-18T04:04:35;42.15;;;19.60;;
55710;SDS011;41612;51.994;5.880;2022-12-18T04:07:08;40.92;;;19.52;;
55710;SDS011;41612;51.994;5.880;2022-12-18T04:09:49;47.28;;;19.63;;
55710;SDS011;41612;51.994;5.880;2022-12-18T04:12:30;44.35;;;21.80;;
55710;SDS011;41612;51.994;5.880;2022-12-18T04:15:03;43.50;;;19.50;;
55710;SDS011;41612;51.994;5.880;2022-12-18T04:17:35;42.45;;;20.92;;
55710;SDS011;41612;51.994;5.880;2022-12-18T04:20:09;39.78;;;18.23;;
55710;SDS011;41612;51.994;5.880;2022-12-18T04:22:40;36.83;;;20.27;;
55710;SDS011;41612;51.994;5.880;2022-12-18T04:25:06;37.28;;;19.02;;
55710;SDS011;41612;51.994;5.880;2022-12-18T04:27:45;43.08;;;20.70;;
55710;SDS011;41612;51.994;5.880;2022-12-18T04:30:16;41.95;;;20.48;;
55710;SDS011;41612;51.994;5.880;2022-12-18T04:33:00;38.85;;;19.08;;
55710;SDS011;41612;51.994;5.880;2022-12-18T04:35:33;41.70;;;20.63;;
55710;SDS011;41612;51.994;5.880;2022-12-18T04:38:05;40.25;;;19.73;;
55710;SDS011;41612;51.994;5.880;2022-12-18T04:40:38;39.97;;;19.85;;
55710;SDS011;41612;51.994;5.880;2022-12-18T04:43:19;38.10;;;17.98;;
55710;SDS011;41612;51.994;5.880;2022-12-18T04:45:47;37.85;;;18.02;;
55710;SDS011;41612;51.994;5.880;2022-12-18T04:48:13;35.63;;;18.38;;
55710;SDS011;41612;51.994;5.880;2022-12-18T04:50:40;41.15;;;18.88;;
55710;SDS011;41612;51.994;5.880;2022-12-18T04:53:09;35.80;;;18.98;;
55710;SDS011;41612;51.994;5.880;2022-12-18T04:55:45;34.78;;;18.17;;
55710;SDS011;41612;51.994;5.880;2022-12-18T04:58:24;35.45;;;18.67;;
55710;SDS011;41612;51.994;5.880;2022-12-18T05:00:53;32.72;;;16.35;;
55710;SDS011;41612;51.994;5.880;2022-12-18T05:03:24;36.47;;;18.05;;
55710;SDS011;41612;51.994;5.880;2022-12-18T05:06:00;35.58;;;18.88;;
55710;SDS011;41612;51.994;5.880;2022-12-18T05:08:26;35.45;;;18.95;;
55710;SDS011;41612;51.994;5.880;2022-12-18T05:11:28;35.92;;;17.33;;
55710;SDS011;41612;51.994;5.880;2022-12-18T05:14:01;33.75;;;17.52;;
55710;SDS011;41612;51.994;5.880;2022-12-18T05:16:31;29.45;;;15.88;;
55710;SDS011;41612;51.994;5.880;2022-12-18T05:19:39;31.10;;;17.20;;
55710;SDS011;41612;51.994;5.880;2022-12-18T05:22:33;34.03;;;16.33;;
55710;SDS011;41612;51.994;5.880;2022-12-18T05:25:26;28.83;;;16.73;;
55710;SDS011;41612;51.994;5.880;2022-12-18T05:28:22;32.42;;;18.10;;
55710;SDS011;41612;51.994;5.880;2022-12-18T05:31:30;30.63;;;15.38;;
55710;SDS011;41612;51.994;5.880;2022-12-18T05:34:06;28.30;;;15.63;;
55710;SDS011;41612;51.994;5.880;2022-12-18T05:36:49;32.90;;;17.00;;
55710;SDS011;41612;51.994;5.880;2022-12-18T05:40:05;31.90;;;15.95;;
55710;SDS011;41612;51.994;5.880;2022-12-18T05:42:40;35.45;;;16.10;;
55710;SDS011;41612;51.994;5.880;2022-12-18T05:48:18;30.85;;;16.10;;
55710;SDS011;41612;51.994;5.880;2022-12-18T05:51:06;28.50;;;16.50;;
55710;SDS011;41612;51.994;5.880;2022-12-18T05:53:45;28.10;;;15.60;;
55710;SDS011;41612;51.994;5.880;2022-12-18T05:56:26;33.72;;;16.75;;
55710;SDS011;41612;51.994;5.880;2022-12-18T05:58:58;34.80;;;17.33;;
55710;SDS011;41612;51.994;5.880;2022-12-18T06:01:31;29.58;;;17.30;;
55710;SDS011;41612;51.994;5.880;2022-12-18T06:04:02;28.02;;;15.98;;
55710;SDS011;41612;51.994;5.880;2022-12-18T06:06:28;28.10;;;15.10;;
55710;SDS011;41612;51.994;5.880;2022-12-18T06:08:59;29.27;;;16.10;;
55710;SDS011;41612;51.994;5.880;2022-12-18T06:11:50;31.02;;;17.15;;
55710;SDS011;41612;51.994;5.880;2022-12-18T06:14:42;29.10;;;16.15;;
55710;SDS011;41612;51.994;5.880;2022-12-18T06:17:15;33.80;;;16.77;;
55710;SDS011;41612;51.994;5.880;2022-12-18T06:19:49;32.63;;;17.27;;
55710;SDS011;41612;51.994;5.880;2022-12-18T06:22:26;32.78;;;17.23;;
55710;SDS011;41612;51.994;5.880;2022-12-18T06:24:55;29.92;;;15.70;;
55710;SDS011;41612;51.994;5.880;2022-12-18T06:27:24;29.23;;;17.30;;
55710;SDS011;41612;51.994;5.880;2022-12-18T06:29:59;29.65;;;17.05;;
55710;SDS011;41612;51.994;5.880;2022-12-18T06:32:31;25.05;;;15.50;;
55710;SDS011;41612;51.994;5.880;2022-12-18T06:35:06;34.08;;;17.85;;
55710;SDS011;41612;51.994;5.880;2022-12-18T06:37:35;32.10;;;16.52;;
55710;SDS011;41612;51.994;5.880;2022-12-18T06:40:07;31.13;;;16.60;;
55710;SDS011;41612;51.994;5.880;2022-12-18T06:42:36;32.65;;;17.60;;
55710;SDS011;41612;51.994;5.880;2022-12-18T06:45:05;25.88;;;14.80;;
55710;SDS011;41612;51.994;5.880;2022-12-18T06:47:37;31.10;;;16.42;;
55710;SDS011;41612;51.994;5.880;2022-12-18T06:50:14;33.35;;;19.27;;
55710;SDS011;41612;51.994;5.880;2022-12-18T06:52:43;29.33;;;16.05;;
55710;SDS011;41612;51.994;5.880;2022-12-18T06:55:15;32.10;;;16.80;;
55710;SDS011;41612;51.994;5.880;2022-12-18T06:57:44;33.22;;;16.13;;
55710;SDS011;41612;51.994;5.880;2022-12-18T07:00:36;32.13;;;18.27;;
55710;SDS011;41612;51.994;5.880;2022-12-18T07:03:11;32.22;;;16.67;;
55710;SDS011;41612;51.994;5.880;2022-12-18T07:05:45;31.13;;;16.27;;
55710;SDS011;41612;51.994;5.880;2022-12-18T07:11:49;24.77;;;14.38;;
55710;SDS011;41612;51.994;5.880;2022-12-18T07:14:35;28.65;;;14.98;;
55710;SDS011;41612;51.994;5.880;2022-12-18T07:17:04;30.60;;;15.40;;
55710;SDS011;41612;51.994;5.880;2022-12-18T07:19:31;29.95;;;15.45;;
55710;SDS011;41612;51.994;5.880;2022-12-18T07:22:05;28.55;;;14.90;;
55710;SDS011;41612;51.994;5.880;2022-12-18T07:24:42;30.20;;;16.52;;
55710;SDS011;41612;51.994;5.880;2022-12-18T07:27:25;30.95;;;15.65;;
55710;SDS011;41612;51.994;5.880;2022-12-18T07:30:01;25.38;;;13.65;;
55710;SDS011;41612;51.994;5.880;2022-12-18T07:33:03;25.58;;;12.85;;
55710;SDS011;41612;51.994;5.880;2022-12-18T07:35:37;28.38;;;15.30;;
55710;SDS011;41612;51.994;5.880;2022-12-18T07:38:15;27.70;;;14.25;;
55710;SDS011;41612;51.994;5.880;2022-12-18T07:40:49;29.27;;;15.00;;
55710;SDS011;41612;51.994;5.880;2022-12-18T07:43:36;27.00;;;15.00;;
55710;SDS011;41612;51.994;5.880;2022-12-18T07:46:07;27.65;;;15.63;;
55710;SDS011;41612;51.994;5.880;2022-12-18T07:48:39;26.85;;;13.95;;
55710;SDS011;41612;51.994;5.880;2022-12-18T07:51:47;27.88;;;14.20;;
55710;SDS011;41612;51.994;5.880;2022-12-18T07:54:32;23.75;;;12.80;;
55710;SDS011;41612;51.994;5.880;2022-12-18T07:57:30;23.88;;;12.77;;
55710;SDS011;41612;51.994;5.880;2022-12-18T08:00:06;25.15;;;13.65;;
55710;SDS011;41612;51.994;5.880;2022-12-18T08:02:58;24.42;;;13.15;;
55710;SDS011;41612;51.994;5.880;2022-12-18T08:05:26;25.95;;;14.00;;
55710;SDS011;41612;51.994;5.880;2022-12-18T08:08:03;29.70;;;13.40;;
55710;SDS011;41612;51.994;5.880;2022-12-18T08:10:35;25.35;;;12.95;;
55710;SDS011;41612;51.994;5.880;2022-12-18T08:13:05;27.40;;;14.13;;
55710;SDS011;41612;51.994;5.880;2022-12-18T08:15:31;26.25;;;12.60;;
55710;SDS011;41612;51.994;5.880;2022-12-18T08:18:05;23.42;;;12.43;;
55710;SDS011;41612;51.994;5.880;2022-12-18T08:20:43;27.52;;;13.38;;
55710;SDS011;41612;51.994;5.880;2022-12-18T08:23:34;22.50;;;12.73;;
55710;SDS011;41612;51.994;5.880;2022-12-18T08:26:03;21.90;;;11.73;;
55710;SDS011;41612;51.994;5.880;2022-12-18T08:28:33;21.63;;;12.93;;
55710;SDS011;41612;51.994;5.880;2022-12-18T08:31:07;22.88;;;12.13;;
55710;SDS011;41612;51.994;5.880;2022-12-18T08:33:38;21.50;;;11.50;;
55710;SDS011;41612;51.994;5.880;2022-12-18T08:36:05;21.13;;;11.55;;
55710;SDS011;41612;51.994;5.880;2022-12-18T08:38:41;22.33;;;10.95;;
55710;SDS011;41612;51.994;5.880;2022-12-18T08:41:18;26.50;;;12.27;;
55710;SDS011;41612;51.994;5.880;2022-12-18T08:43:49;20.95;;;11.15;;
55710;SDS011;41612;51.994;5.880;2022-12-18T08:46:41;22.38;;;13.18;;
55710;SDS011;41612;51.994;5.880;2022-12-18T08:49:13;20.67;;;11.13;;
55710;SDS011;41612;51.994;5.880;2022-12-18T08:51:43;22.50;;;11.63;;
55710;SDS011;41612;51.994;5.880;2022-12-18T08:54:15;21.50;;;11.60;;
55710;SDS011;41612;51.994;5.880;2022-12-18T08:56:48;19.77;;;10.55;;
55710;SDS011;41612;51.994;5.880;2022-12-18T08:59:17;20.03;;;10.87;;
55710;SDS011;41612;51.994;5.880;2022-12-18T09:01:44;22.00;;;10.30;;
55710;SDS011;41612;51.994;5.880;2022-12-18T09:04:17;19.75;;;10.50;;
55710;SDS011;41612;51.994;5.880;2022-12-18T09:06:44;22.75;;;11.10;;
55710;SDS011;41612;51.994;5.880;2022-12-18T09:09:10;24.38;;;11.32;;
55710;SDS011;41612;51.994;5.880;2022-12-18T09:11:36;19.17;;;10.57;;
55710;SDS011;41612;51.994;5.880;2022-12-18T09:14:11;23.30;;;11.32;;
55710;SDS011;41612;51.994;5.880;2022-12-18T09:16:39;18.30;;;10.82;;
55710;SDS011;41612;51.994;5.880;2022-12-18T09:19:08;19.10;;;10.75;;
55710;SDS011;41612;51.994;5.880;2022-12-18T09:21:34;19.15;;;10.27;;
55710;SDS011;41612;51.994;5.880;2022-12-18T09:24:04;18.60;;;10.52;;
55710;SDS011;41612;51.994;5.880;2022-12-18T09:26:30;18.40;;;10.13;;
55710;SDS011;41612;51.994;5.880;2022-12-18T09:28:59;19.63;;;10.32;;
55710;SDS011;41612;51.994;5.880;2022-12-18T09:31:30;18.75;;;10.82;;
55710;SDS011;41612;51.994;5.880;2022-12-18T09:34:09;15.35;;;8.68;;
55710;SDS011;41612;51.994;5.880;2022-12-18T09:36:35;24.17;;;10.20;;
55710;SDS011;41612;51.994;5.880;2022-12-18T09:39:03;19.02;;;10.15;;
55710;SDS011;41612;51.994;5.880;2022-12-18T09:41:34;16.27;;;9.75;;
55710;SDS011;41612;51.994;5.880;2022-12-18T09:44:11;21.48;;;12.95;;
55710;SDS011;41612;51.994;5.880;2022-12-18T09:47:07;18.58;;;11.00;;
55710;SDS011;41612;51.994;5.880;2022-12-18T09:49:55;19.67;;;10.38;;
